createdAt,value
2018-03-25T00:02:08.439Z,99.90
2018-03-25T00:04:36.770Z,99.90
2018-03-25T00:07:05.068Z,99.90
2018-03-25T00:09:33.446Z,99.90
2018-03-25T00:12:01.746Z,99.90
2018-03-25T00:14:30.850Z,99.90
2018-03-25T00:16:59.909Z,99.90
2018-03-25T00:19:28.238Z,99.90
2018-03-25T00:21:56.586Z,99.90
2018-03-25T00:24:25.709Z,99.90
2018-03-25T00:26:54.045Z,99.90
2018-03-25T00:29:22.346Z,99.90
2018-03-25T00:31:50.704Z,99.90
2018-03-25T00:34:19.794Z,99.90
2018-03-25T00:36:48.141Z,99.90
2018-03-25T00:39:16.441Z,99.90
2018-03-25T00:41:45.566Z,99.90
2018-03-25T00:44:14.638Z,99.90
2018-03-25T00:46:42.974Z,99.90
2018-03-25T00:49:11.286Z,99.90
2018-03-25T00:51:39.625Z,99.90
2018-03-25T00:54:07.977Z,99.90
2018-03-25T00:56:36.314Z,99.90
2018-03-25T00:59:04.627Z,99.90
2018-03-25T01:01:32.993Z,99.90
2018-03-25T01:04:02.082Z,99.90
2018-03-25T01:06:30.409Z,99.90
2018-03-25T01:08:58.724Z,99.90
2018-03-25T01:11:27.835Z,99.90
2018-03-25T01:13:56.910Z,99.90
2018-03-25T01:16:26.866Z,99.90
2018-03-25T01:18:55.174Z,99.90
2018-03-25T01:21:23.533Z,99.90
2018-03-25T01:23:51.888Z,99.90
2018-03-25T01:26:20.952Z,99.90
2018-03-25T01:28:50.080Z,99.90
2018-03-25T01:31:19.151Z,99.90
2018-03-25T01:33:47.542Z,99.90
2018-03-25T01:36:16.602Z,99.90
2018-03-25T01:38:44.926Z,99.90
2018-03-25T01:41:13.238Z,99.90
2018-03-25T01:43:41.621Z,99.90
2018-03-25T01:46:09.963Z,99.90
2018-03-25T01:48:38.266Z,99.90
2018-03-25T01:51:06.603Z,99.90
2018-03-25T01:53:35.666Z,99.90
2018-03-25T01:56:04.782Z,99.90
2018-03-25T01:58:33.857Z,99.90
2018-03-25T02:01:02.213Z,99.90
2018-03-25T02:03:30.849Z,99.90
2018-03-25T02:05:59.986Z,99.90
2018-03-25T02:08:28.318Z,99.90
2018-03-25T02:10:57.423Z,99.90
2018-03-25T02:13:25.737Z,99.90
2018-03-25T02:15:54.482Z,99.90
2018-03-25T02:18:23.539Z,99.90
2018-03-25T02:20:51.846Z,99.90
2018-03-25T02:23:20.955Z,99.90
2018-03-25T02:25:49.266Z,99.90
2018-03-25T02:28:17.601Z,99.90
2018-03-25T02:30:46.666Z,99.90
2018-03-25T02:33:15.002Z,99.90
2018-03-25T02:35:43.290Z,99.90
2018-03-25T02:38:11.630Z,99.90
2018-03-25T02:40:39.935Z,99.90
2018-03-25T02:43:08.286Z,99.90
2018-03-25T02:45:36.592Z,99.90
2018-03-25T02:48:04.967Z,99.90
2018-03-25T02:50:33.271Z,99.90
2018-03-25T02:53:01.602Z,99.90
2018-03-25T02:55:29.927Z,99.90
2018-03-25T02:57:58.231Z,99.90
2018-03-25T03:00:26.999Z,99.90
2018-03-25T03:02:55.308Z,99.90
2018-03-25T03:05:24.404Z,99.90
2018-03-25T03:07:53.487Z,99.90
2018-03-25T03:10:22.606Z,99.90
2018-03-25T03:12:50.905Z,99.90
2018-03-25T03:15:19.210Z,99.90
2018-03-25T03:17:47.534Z,99.90
2018-03-25T03:20:15.847Z,99.90
2018-03-25T03:22:44.190Z,99.90
2018-03-25T03:25:12.494Z,99.90
2018-03-25T03:27:40.922Z,99.90
2018-03-25T03:30:10.008Z,99.90
2018-03-25T03:32:38.338Z,99.90
2018-03-25T03:35:06.649Z,99.90
2018-03-25T03:37:34.968Z,99.90
2018-03-25T03:40:03.277Z,99.90
2018-03-25T03:42:31.619Z,99.90
2018-03-25T03:44:59.923Z,99.90
2018-03-25T03:47:28.218Z,99.90
2018-03-25T03:49:56.557Z,99.90
2018-03-25T03:52:24.858Z,99.90
2018-03-25T03:54:53.185Z,99.90
2018-03-25T03:57:21.565Z,99.90
2018-03-25T03:59:50.761Z,99.90
2018-03-25T04:02:19.818Z,99.90
2018-03-25T04:04:48.117Z,99.90
2018-03-25T04:07:16.441Z,99.90
2018-03-25T04:09:44.742Z,99.90
2018-03-25T04:12:13.070Z,99.90
2018-03-25T04:14:41.791Z,99.90
2018-03-25T04:17:10.117Z,99.90
2018-03-25T04:19:39.182Z,99.90
2018-03-25T04:22:07.589Z,99.90
2018-03-25T04:24:36.650Z,99.90
2018-03-25T04:27:05.031Z,99.90
2018-03-25T04:29:33.325Z,99.90
2018-03-25T04:32:01.675Z,99.90
2018-03-25T04:34:29.990Z,99.90
2018-03-25T04:36:59.055Z,99.90
2018-03-25T04:39:27.382Z,99.90
2018-03-25T04:41:55.698Z,99.90
2018-03-25T04:44:24.054Z,99.90
2018-03-25T04:46:52.366Z,99.90
2018-03-25T04:51:55.506Z,99.90
2018-03-25T04:54:23.822Z,99.90
2018-03-25T04:56:52.143Z,99.90
2018-03-25T04:59:20.457Z,99.90
2018-03-25T05:01:48.782Z,99.90
2018-03-25T05:04:17.093Z,99.90
2018-03-25T05:06:46.214Z,99.90
2018-03-25T05:09:14.779Z,99.90
2018-03-25T05:11:43.143Z,99.90
2018-03-25T05:14:12.203Z,99.90
2018-03-25T05:16:40.526Z,99.90
2018-03-25T05:19:08.825Z,99.90
2018-03-25T05:21:37.181Z,99.90
2018-03-25T05:24:05.494Z,99.90
2018-03-25T05:26:33.798Z,99.90
2018-03-25T05:29:03.638Z,99.90
2018-03-25T05:31:31.966Z,99.90
2018-03-25T05:34:00.314Z,99.90
2018-03-25T05:36:28.647Z,99.90
2018-03-25T05:38:56.978Z,99.90
2018-03-25T05:41:25.320Z,99.90
2018-03-25T05:43:53.650Z,99.90
2018-03-25T05:46:21.966Z,99.90
2018-03-25T05:48:50.342Z,99.90
2018-03-25T05:51:19.414Z,99.90
2018-03-25T05:53:47.815Z,99.90
2018-03-25T05:56:16.911Z,99.90
2018-03-25T05:58:45.238Z,99.90
2018-03-25T06:01:13.601Z,99.90
2018-03-25T06:03:41.922Z,99.90
2018-03-25T06:06:10.533Z,99.90
2018-03-25T06:08:38.880Z,99.90
2018-03-25T06:11:07.194Z,99.90
2018-03-25T06:13:35.498Z,99.90
2018-03-25T06:16:03.826Z,99.90
2018-03-25T06:18:32.126Z,99.90
2018-03-25T06:21:01.234Z,99.90
2018-03-25T06:23:29.587Z,99.90
2018-03-25T06:25:58.662Z,99.90
2018-03-25T06:28:27.786Z,99.90
2018-03-25T06:30:56.100Z,99.90
2018-03-25T06:33:24.455Z,99.90
2018-03-25T06:35:53.114Z,99.90
2018-03-25T06:38:22.235Z,99.90
2018-03-25T06:40:50.539Z,99.90
2018-03-25T06:43:18.886Z,99.90
2018-03-25T06:45:47.206Z,99.90
2018-03-25T06:48:15.489Z,99.90
2018-03-25T09:25:37.539Z,99.90
2018-03-25T09:28:05.859Z,99.90
2018-03-25T09:30:34.165Z,99.90
2018-03-25T09:33:02.551Z,99.90
2018-03-25T09:35:30.858Z,99.90
2018-03-25T09:37:59.946Z,99.90
2018-03-25T09:40:28.270Z,99.90
2018-03-25T09:42:58.138Z,99.90
2018-03-25T09:45:26.445Z,99.90
2018-03-25T09:47:54.790Z,99.90
2018-03-25T09:50:23.093Z,99.90
2018-03-25T09:52:51.430Z,99.90
2018-03-25T09:55:20.507Z,99.90
2018-03-25T09:57:48.849Z,99.90
2018-03-25T10:00:22.790Z,99.90
2018-03-25T10:02:51.402Z,99.90
2018-03-25T10:05:20.494Z,99.90
2018-03-25T10:07:49.599Z,99.90
2018-03-25T10:10:17.917Z,99.90
2018-03-25T10:12:46.252Z,99.90
2018-03-25T10:15:14.562Z,99.90
2018-03-25T10:17:42.926Z,99.90
2018-03-25T10:20:11.263Z,99.90
2018-03-25T10:22:40.345Z,99.90
2018-03-25T10:25:08.698Z,99.90
2018-03-25T10:27:37.024Z,99.90
2018-03-25T10:30:06.623Z,99.90
2018-03-25T10:32:35.014Z,99.90
2018-03-25T10:35:04.132Z,99.90
2018-03-25T10:37:33.290Z,99.90
2018-03-25T10:40:01.676Z,99.90
2018-03-25T10:42:30.762Z,99.90
2018-03-25T10:44:59.098Z,99.90
2018-03-25T10:47:27.423Z,99.90
2018-03-25T10:49:56.531Z,99.90
2018-03-25T10:52:24.846Z,99.90
2018-03-25T10:54:53.190Z,99.90
2018-03-25T10:57:21.485Z,99.90
2018-03-25T10:59:49.829Z,99.90
2018-03-25T11:02:18.146Z,99.90
2018-03-25T11:04:46.478Z,99.90
2018-03-25T11:07:15.553Z,99.90
2018-03-25T11:09:43.871Z,99.90
2018-03-25T11:12:12.170Z,99.90
2018-03-25T11:14:40.534Z,99.90
2018-03-25T11:17:08.835Z,99.90
2018-03-25T11:19:37.203Z,99.90
2018-03-25T11:22:05.505Z,99.90
2018-03-25T11:24:33.829Z,99.90
2018-03-25T11:27:02.214Z,99.90
2018-03-25T11:29:30.559Z,99.80
2018-03-25T11:31:58.977Z,99.90
2018-03-25T11:34:27.338Z,99.90
2018-03-25T11:36:55.702Z,99.90
2018-03-25T11:39:24.770Z,99.90
2018-03-25T11:41:53.116Z,99.80
2018-03-25T11:44:21.441Z,99.90
2018-03-25T11:46:50.555Z,98.60
2018-03-25T11:49:18.863Z,98.50
2018-03-25T11:51:47.223Z,98.40
2018-03-25T11:54:15.550Z,98.70
2018-03-25T11:56:44.774Z,98.10
2018-03-25T11:59:13.850Z,97.40
2018-03-25T12:01:42.963Z,97.60
2018-03-25T12:04:11.458Z,97.20
2018-03-25T12:06:40.542Z,96.50
2018-03-25T12:09:09.225Z,96.50
2018-03-25T12:11:38.331Z,95.00
2018-03-25T12:14:06.658Z,94.90
2018-03-25T12:16:36.534Z,95.90
2018-03-25T12:19:04.900Z,95.80
2018-03-25T12:21:33.238Z,95.90
2018-03-25T12:24:02.371Z,94.70
2018-03-25T12:26:31.471Z,93.60
2018-03-25T12:28:59.814Z,93.50
2018-03-25T12:31:28.151Z,93.80
2018-03-25T12:33:56.502Z,93.00
2018-03-25T12:36:24.824Z,91.30
2018-03-25T12:38:53.267Z,90.80
2018-03-25T12:41:21.591Z,90.10
2018-03-25T12:43:49.939Z,88.70
2018-03-25T12:46:18.297Z,89.70
2018-03-25T12:48:46.638Z,91.20
2018-03-25T12:51:15.724Z,90.20
2018-03-25T12:53:44.108Z,90.20
2018-03-25T12:56:12.423Z,90.00
2018-03-25T12:58:40.760Z,90.30
2018-03-25T13:01:09.878Z,84.10
2018-03-25T13:03:38.219Z,84.00
2018-03-25T13:06:06.535Z,84.20
2018-03-25T13:08:34.889Z,83.90
2018-03-25T13:11:03.489Z,83.40
2018-03-25T13:13:32.595Z,85.10
2018-03-25T13:16:00.902Z,85.10
2018-03-25T13:18:29.250Z,87.20
2018-03-25T13:20:57.565Z,88.40
2018-03-25T13:23:25.898Z,88.10
2018-03-25T13:25:54.243Z,87.70
2018-03-25T13:28:23.347Z,90.00
2018-03-25T13:30:51.695Z,89.90
2018-03-25T13:33:20.022Z,89.90
2018-03-25T13:35:49.116Z,90.50
2018-03-25T13:38:18.194Z,91.10
2018-03-25T13:40:47.308Z,91.00
2018-03-25T13:43:15.629Z,91.00
2018-03-25T13:45:44.374Z,92.00
2018-03-25T13:48:12.940Z,91.50
2018-03-25T13:50:42.071Z,92.90
2018-03-25T13:53:10.397Z,92.90
2018-03-25T13:55:38.770Z,92.90
2018-03-25T13:58:07.088Z,93.40
2018-03-25T14:00:35.415Z,93.50
2018-03-25T14:03:04.506Z,92.80
2018-03-25T14:05:32.849Z,92.70
2018-03-25T14:08:01.180Z,93.20
2018-03-25T14:10:29.571Z,93.00
2018-03-25T14:12:58.702Z,93.40
2018-03-25T14:15:27.770Z,93.70
2018-03-25T14:17:56.110Z,93.70
2018-03-25T14:20:25.262Z,93.30
2018-03-25T14:22:53.620Z,93.20
2018-03-25T14:25:21.944Z,93.30
2018-03-25T14:27:50.303Z,94.20
2018-03-25T14:30:18.634Z,94.10
2018-03-25T14:32:47.766Z,94.10
2018-03-25T14:35:16.113Z,94.00
2018-03-25T14:37:44.580Z,93.10
2018-03-25T14:40:14.010Z,92.50
2018-03-25T14:42:42.359Z,92.50
2018-03-25T14:45:10.702Z,91.80
2018-03-25T14:47:39.125Z,90.90
2018-03-25T14:50:08.195Z,90.20
2018-03-25T14:52:36.555Z,90.20
2018-03-25T14:55:04.909Z,90.10
2018-03-25T14:57:33.238Z,89.80
2018-03-25T15:00:01.555Z,87.80
2018-03-25T15:02:29.904Z,86.20
2018-03-25T15:04:58.238Z,86.00
2018-03-25T15:07:26.666Z,85.20
2018-03-25T15:09:55.000Z,82.10
2018-03-25T15:12:23.435Z,79.70
2018-03-25T15:14:51.842Z,82.00
2018-03-25T15:17:20.286Z,82.00
2018-03-25T15:19:49.367Z,81.00
2018-03-25T15:22:18.505Z,81.40
2018-03-25T15:24:46.818Z,81.40
2018-03-25T15:27:15.127Z,81.60
2018-03-25T15:29:43.505Z,79.90
2018-03-25T15:32:12.569Z,78.90
2018-03-25T15:34:42.423Z,75.20
2018-03-25T15:37:10.739Z,75.20
2018-03-25T15:39:39.269Z,77.60
2018-03-25T15:42:08.343Z,74.70
2018-03-25T15:44:36.674Z,74.50
2018-03-25T15:47:04.989Z,74.40
2018-03-25T15:49:33.342Z,75.10
2018-03-25T15:52:01.673Z,73.30
2018-03-25T15:54:30.776Z,75.50
2018-03-25T15:56:59.125Z,75.50
2018-03-25T15:59:27.515Z,76.60
2018-03-25T16:01:55.831Z,77.40
2018-03-25T16:04:24.177Z,80.20
2018-03-25T16:06:53.286Z,80.80
2018-03-25T16:09:21.622Z,80.70
2018-03-25T16:11:49.939Z,81.80
2018-03-25T16:14:18.275Z,82.70
2018-03-25T16:16:47.406Z,82.70
2018-03-25T16:19:16.507Z,81.40
2018-03-25T16:21:45.602Z,82.10
2018-03-25T16:24:13.983Z,82.00
2018-03-25T16:26:42.326Z,83.40
2018-03-25T16:29:11.428Z,84.90
2018-03-25T16:31:40.234Z,84.80
2018-03-25T16:34:08.574Z,86.90
2018-03-25T16:36:36.933Z,87.70
2018-03-25T16:39:05.354Z,87.50
2018-03-25T16:41:33.702Z,87.80
2018-03-25T16:44:02.027Z,88.60
2018-03-25T16:46:31.135Z,88.90
2018-03-25T16:48:59.454Z,88.70
2018-03-25T16:51:27.813Z,89.90
2018-03-25T16:53:56.110Z,90.00
2018-03-25T16:56:24.465Z,90.40
2018-03-25T16:58:53.406Z,90.80
2018-03-25T17:01:21.771Z,90.80
2018-03-25T17:03:50.875Z,90.50
2018-03-25T17:06:20.087Z,90.70
2018-03-25T17:08:48.486Z,90.70
2018-03-25T17:11:16.841Z,90.70
2018-03-25T17:13:45.165Z,90.60
2018-03-25T17:16:13.530Z,90.70
2018-03-25T17:18:41.926Z,90.90
2018-03-25T17:21:10.251Z,91.80
2018-03-25T17:23:39.327Z,92.90
2018-03-25T17:26:07.742Z,92.90
2018-03-25T17:28:36.077Z,93.70
2018-03-25T17:31:04.386Z,94.80
2018-03-25T17:33:32.726Z,95.50
2018-03-25T17:36:01.031Z,96.10
2018-03-25T17:38:29.394Z,96.50
2018-03-25T17:40:58.474Z,97.20
2018-03-25T17:43:26.814Z,97.20
2018-03-25T17:45:55.140Z,97.60
2018-03-25T17:48:24.258Z,98.40
2018-03-25T17:50:52.574Z,98.40
2018-03-25T17:53:20.947Z,99.00
2018-03-25T17:55:49.261Z,99.30
2018-03-25T17:58:17.605Z,99.40
2018-03-25T18:00:45.906Z,99.80
2018-03-25T18:03:14.237Z,99.90
2018-03-25T18:05:42.614Z,99.90
2018-03-25T18:08:10.913Z,99.90
2018-03-25T18:10:39.231Z,99.90
2018-03-25T18:13:07.599Z,99.90
2018-03-25T18:15:36.695Z,99.90
2018-03-25T18:18:05.070Z,99.90
2018-03-25T18:20:33.390Z,99.90
2018-03-25T18:23:01.802Z,99.90
2018-03-25T18:25:30.129Z,99.90
2018-03-25T18:27:58.472Z,99.90
2018-03-25T18:30:26.862Z,99.90
2018-03-25T18:32:55.236Z,99.90
2018-03-25T18:35:23.578Z,99.90
2018-03-25T18:37:51.891Z,99.90
2018-03-25T18:40:20.234Z,99.90
2018-03-25T18:42:48.537Z,99.90
2018-03-25T18:45:17.667Z,99.90
2018-03-25T18:47:46.050Z,99.90
2018-03-25T18:50:14.414Z,99.90
2018-03-25T18:52:42.769Z,99.90
2018-03-25T18:55:11.125Z,99.90
2018-03-25T18:57:39.448Z,99.90
2018-03-25T19:00:08.541Z,99.90
2018-03-25T19:02:36.886Z,99.90
2018-03-25T19:05:05.273Z,99.90
2018-03-25T19:07:34.378Z,99.90
2018-03-25T19:10:03.504Z,99.90
2018-03-25T19:12:31.871Z,99.90
2018-03-25T19:15:00.242Z,99.90
2018-03-25T19:17:29.318Z,99.90
2018-03-25T19:19:57.654Z,99.90
2018-03-25T19:22:25.977Z,99.90
2018-03-25T19:24:55.869Z,99.90
2018-03-25T19:27:24.999Z,99.90
2018-03-25T19:29:53.336Z,99.90
2018-03-25T19:32:21.699Z,99.90
2018-03-25T19:34:50.023Z,99.90
2018-03-25T19:37:18.418Z,99.90
2018-03-25T19:39:46.785Z,99.90
2018-03-25T19:42:15.134Z,99.90
2018-03-25T19:44:43.447Z,99.90
2018-03-25T19:47:12.555Z,99.90
2018-03-25T19:49:41.618Z,99.90
2018-03-25T19:52:09.990Z,99.90
2018-03-25T19:54:39.100Z,99.90
2018-03-25T19:57:08.198Z,99.90
2018-03-25T19:59:37.608Z,99.90
2018-03-25T20:02:05.958Z,99.90
2018-03-25T20:04:34.261Z,99.90
2018-03-25T20:07:02.615Z,99.90
2018-03-25T20:09:30.915Z,99.90
2018-03-25T20:11:59.599Z,99.90
2018-03-25T20:14:27.967Z,99.90
2018-03-25T20:16:57.077Z,99.90
2018-03-25T20:19:25.429Z,99.90
2018-03-25T20:21:54.553Z,99.90
2018-03-25T20:24:23.618Z,99.90
2018-03-25T20:26:52.008Z,99.90
2018-03-25T20:29:20.311Z,99.90
2018-03-25T20:31:48.666Z,99.90
2018-03-25T20:34:17.010Z,99.90
2018-03-25T20:36:45.326Z,99.90
2018-03-25T20:39:14.413Z,99.90
2018-03-25T20:41:43.482Z,99.90
2018-03-25T20:44:12.598Z,99.90
2018-03-25T20:46:41.677Z,99.90
2018-03-25T20:49:10.030Z,99.90
2018-03-25T20:51:38.362Z,99.90
2018-03-25T20:54:07.506Z,99.90
2018-03-25T20:56:36.141Z,99.90
2018-03-25T20:59:05.230Z,99.90
2018-03-25T21:01:33.543Z,99.90
2018-03-25T21:04:01.922Z,99.90
2018-03-25T21:06:30.353Z,99.90
2018-03-25T21:08:58.682Z,99.90
2018-03-25T21:11:26.995Z,99.90
2018-03-25T21:13:55.342Z,99.90
2018-03-25T21:16:23.655Z,99.90
2018-03-25T21:18:52.011Z,99.90
2018-03-25T21:21:20.315Z,99.90
2018-03-25T21:23:49.414Z,99.90
2018-03-25T21:26:17.762Z,99.90
2018-03-25T21:28:46.140Z,99.90
2018-03-25T21:31:14.466Z,99.90
2018-03-25T21:33:43.534Z,99.90
2018-03-25T21:36:12.219Z,99.90
2018-03-25T21:38:40.512Z,99.90
2018-03-25T21:41:09.910Z,99.90
2018-03-25T21:43:38.978Z,99.90
2018-03-25T21:46:07.722Z,99.90
2018-03-25T21:48:36.064Z,99.90
2018-03-25T21:51:04.430Z,99.90
2018-03-25T21:53:33.510Z,99.90
2018-03-25T21:56:02.629Z,99.90
2018-03-25T21:58:31.694Z,99.90
2018-03-25T22:01:00.039Z,99.90
2018-03-25T22:03:28.529Z,99.90
2018-03-25T22:05:56.854Z,99.90
2018-03-25T22:08:25.214Z,99.90
2018-03-25T22:10:54.361Z,99.90
2018-03-25T22:13:22.718Z,99.90
2018-03-25T22:15:51.900Z,99.90
2018-03-25T22:18:31.354Z,99.90
2018-03-25T22:20:59.691Z,99.90
2018-03-25T22:23:29.506Z,99.90
2018-03-25T22:25:57.832Z,99.90
2018-03-25T22:28:26.158Z,99.90
2018-03-25T22:30:55.282Z,99.90
2018-03-25T22:33:23.614Z,99.90
2018-03-25T22:35:52.250Z,99.90
2018-03-25T22:38:21.315Z,99.90
2018-03-25T22:40:49.638Z,99.90
2018-03-25T22:43:17.946Z,99.90
2018-03-25T22:45:46.486Z,99.90
2018-03-25T22:48:15.062Z,99.90
2018-03-25T22:50:43.381Z,99.90
2018-03-25T22:53:11.734Z,99.90
2018-03-25T22:55:40.072Z,99.90
2018-03-25T22:58:08.394Z,99.90
2018-03-25T23:00:36.953Z,99.90
2018-03-25T23:03:09.427Z,99.90
2018-03-25T23:05:38.485Z,99.90
2018-03-25T23:08:06.823Z,99.90
2018-03-25T23:10:35.133Z,99.90
2018-03-25T23:13:03.468Z,99.90
2018-03-25T23:15:31.770Z,99.90
2018-03-25T23:18:00.203Z,99.90
2018-03-25T23:20:29.301Z,99.90
2018-03-25T23:22:57.662Z,99.90
2018-03-25T23:25:25.969Z,99.90
2018-03-25T23:27:54.301Z,99.90
2018-03-25T23:30:22.605Z,99.90
2018-03-25T23:32:51.798Z,99.90
2018-03-25T23:35:20.878Z,99.90
2018-03-25T23:37:49.270Z,99.90
2018-03-25T23:40:17.592Z,99.90
2018-03-25T23:42:45.926Z,99.90
2018-03-25T23:45:14.986Z,99.90
2018-03-25T23:47:43.378Z,99.90
2018-03-25T23:50:12.477Z,99.90
2018-03-25T23:52:41.551Z,99.90
2018-03-25T23:55:09.934Z,99.90
2018-03-25T23:57:39.046Z,99.90
